sensor_id;sensor_type;location;lat;lon;timestamp;P1;durP1;ratioP1;P2;durP2;ratioP2
42134;SDS011;28312;43.460;11.810;2023-11-21T00:00:08;9.65;;;6.85;;
42134;SDS011;28312;43.460;11.810;2023-11-21T00:04:15;9.32;;;7.03;;
42134;SDS011;28312;43.460;11.810;2023-11-21T00:08:19;14.77;;;10.50;;
42134;SDS011;28312;43.460;11.810;2023-11-21T00:12:22;11.73;;;7.18;;
42134;SDS011;28312;43.460;11.810;2023-11-21T00:16:28;10.68;;;9.48;;
42134;SDS011;28312;43.460;11.810;2023-11-21T00:20:36;7.65;;;5.60;;
42134;SDS011;28312;43.460;11.810;2023-11-21T00:24:39;7.82;;;5.70;;
42134;SDS011;28312;43.460;11.810;2023-11-21T00:28:43;8.38;;;6.75;;
42134;SDS011;28312;43.460;11.810;2023-11-21T00:32:48;7.38;;;5.75;;
42134;SDS011;28312;43.460;11.810;2023-11-21T00:36:52;6.45;;;5.15;;
42134;SDS011;28312;43.460;11.810;2023-11-21T00:40:56;7.97;;;5.72;;
42134;SDS011;28312;43.460;11.810;2023-11-21T00:44:59;14.13;;;9.60;;
42134;SDS011;28312;43.460;11.810;2023-11-21T00:49:04;7.72;;;6.40;;
42134;SDS011;28312;43.460;11.810;2023-11-21T00:53:08;10.15;;;6.47;;
42134;SDS011;28312;43.460;11.810;2023-11-21T00:57:12;14.45;;;10.85;;
42134;SDS011;28312;43.460;11.810;2023-11-21T01:01:16;19.27;;;12.80;;
42134;SDS011;28312;43.460;11.810;2023-11-21T01:05:20;19.35;;;9.90;;
42134;SDS011;28312;43.460;11.810;2023-11-21T01:09:23;8.32;;;6.10;;
42134;SDS011;28312;43.460;11.810;2023-11-21T01:13:28;8.23;;;6.15;;
42134;SDS011;28312;43.460;11.810;2023-11-21T01:17:32;8.05;;;5.40;;
42134;SDS011;28312;43.460;11.810;2023-11-21T01:21:39;6.72;;;5.05;;
42134;SDS011;28312;43.460;11.810;2023-11-21T01:25:43;6.68;;;5.32;;
42134;SDS011;28312;43.460;11.810;2023-11-21T01:29:47;9.27;;;6.72;;
42134;SDS011;28312;43.460;11.810;2023-11-21T01:33:50;6.35;;;5.03;;
42134;SDS011;28312;43.460;11.810;2023-11-21T01:37:54;10.25;;;7.10;;
42134;SDS011;28312;43.460;11.810;2023-11-21T01:41:57;7.18;;;5.13;;
42134;SDS011;28312;43.460;11.810;2023-11-21T01:46:01;10.30;;;8.10;;
42134;SDS011;28312;43.460;11.810;2023-11-21T01:50:06;10.57;;;6.93;;
42134;SDS011;28312;43.460;11.810;2023-11-21T01:54:10;7.82;;;6.30;;
42134;SDS011;28312;43.460;11.810;2023-11-21T01:58:19;8.73;;;6.40;;
42134;SDS011;28312;43.460;11.810;2023-11-21T02:02:23;7.22;;;5.97;;
42134;SDS011;28312;43.460;11.810;2023-11-21T02:06:27;9.45;;;5.97;;
42134;SDS011;28312;43.460;11.810;2023-11-21T02:10:34;9.63;;;7.03;;
42134;SDS011;28312;43.460;11.810;2023-11-21T02:14:39;10.38;;;6.90;;
42134;SDS011;28312;43.460;11.810;2023-11-21T02:18:43;9.18;;;6.05;;
42134;SDS011;28312;43.460;11.810;2023-11-21T02:22:50;6.05;;;4.85;;
42134;SDS011;28312;43.460;11.810;2023-11-21T02:27:01;5.90;;;4.60;;
42134;SDS011;28312;43.460;11.810;2023-11-21T02:31:05;11.18;;;6.28;;
42134;SDS011;28312;43.460;11.810;2023-11-21T02:35:10;7.30;;;5.20;;
42134;SDS011;28312;43.460;11.810;2023-11-21T02:39:15;4.60;;;3.95;;
42134;SDS011;28312;43.460;11.810;2023-11-21T02:43:25;5.75;;;4.32;;
42134;SDS011;28312;43.460;11.810;2023-11-21T02:47:29;9.68;;;6.05;;
42134;SDS011;28312;43.460;11.810;2023-11-21T02:51:33;6.93;;;5.38;;
42134;SDS011;28312;43.460;11.810;2023-11-21T02:55:36;7.68;;;4.43;;
42134;SDS011;28312;43.460;11.810;2023-11-21T02:59:40;7.82;;;5.70;;
42134;SDS011;28312;43.460;11.810;2023-11-21T03:03:44;4.85;;;3.83;;
42134;SDS011;28312;43.460;11.810;2023-11-21T03:07:48;4.65;;;3.38;;
42134;SDS011;28312;43.460;11.810;2023-11-21T03:11:53;6.70;;;4.18;;
42134;SDS011;28312;43.460;11.810;2023-11-21T03:15:56;5.32;;;4.80;;
42134;SDS011;28312;43.460;11.810;2023-11-21T03:20:00;7.03;;;4.60;;
42134;SDS011;28312;43.460;11.810;2023-11-21T03:28:10;6.35;;;4.43;;
42134;SDS011;28312;43.460;11.810;2023-11-21T03:32:14;8.60;;;5.38;;
42134;SDS011;28312;43.460;11.810;2023-11-21T03:36:18;7.40;;;5.43;;
42134;SDS011;28312;43.460;11.810;2023-11-21T03:40:21;7.30;;;4.30;;
42134;SDS011;28312;43.460;11.810;2023-11-21T03:44:25;5.35;;;3.67;;
42134;SDS011;28312;43.460;11.810;2023-11-21T03:48:29;6.53;;;3.95;;
42134;SDS011;28312;43.460;11.810;2023-11-21T03:52:33;8.52;;;6.03;;
42134;SDS011;28312;43.460;11.810;2023-11-21T03:56:37;7.75;;;4.43;;
42134;SDS011;28312;43.460;11.810;2023-11-21T04:00:41;4.95;;;3.53;;
42134;SDS011;28312;43.460;11.810;2023-11-21T04:04:45;5.57;;;4.25;;
42134;SDS011;28312;43.460;11.810;2023-11-21T04:08:49;4.65;;;3.28;;
42134;SDS011;28312;43.460;11.810;2023-11-21T04:12:53;6.20;;;4.47;;
42134;SDS011;28312;43.460;11.810;2023-11-21T04:16:57;4.95;;;3.42;;
42134;SDS011;28312;43.460;11.810;2023-11-21T04:21:01;5.38;;;3.75;;
42134;SDS011;28312;43.460;11.810;2023-11-21T04:25:05;4.93;;;3.13;;
42134;SDS011;28312;43.460;11.810;2023-11-21T04:29:13;4.05;;;3.10;;
42134;SDS011;28312;43.460;11.810;2023-11-21T04:33:16;5.60;;;3.60;;
42134;SDS011;28312;43.460;11.810;2023-11-21T04:37:20;5.22;;;3.15;;
42134;SDS011;28312;43.460;11.810;2023-11-21T04:41:24;8.75;;;4.68;;
42134;SDS011;28312;43.460;11.810;2023-11-21T04:45:27;4.70;;;3.22;;
42134;SDS011;28312;43.460;11.810;2023-11-21T04:49:31;3.72;;;3.00;;
42134;SDS011;28312;43.460;11.810;2023-11-21T04:53:34;4.65;;;3.38;;
42134;SDS011;28312;43.460;11.810;2023-11-21T04:57:38;6.70;;;3.83;;
42134;SDS011;28312;43.460;11.810;2023-11-21T05:01:45;4.55;;;2.90;;
42134;SDS011;28312;43.460;11.810;2023-11-21T05:05:48;6.03;;;3.97;;
42134;SDS011;28312;43.460;11.810;2023-11-21T05:09:52;3.67;;;2.60;;
42134;SDS011;28312;43.460;11.810;2023-11-21T05:13:56;3.92;;;2.50;;
42134;SDS011;28312;43.460;11.810;2023-11-21T05:18:01;4.38;;;3.50;;
42134;SDS011;28312;43.460;11.810;2023-11-21T05:22:05;6.38;;;4.07;;
42134;SDS011;28312;43.460;11.810;2023-11-21T05:26:09;3.45;;;2.50;;
42134;SDS011;28312;43.460;11.810;2023-11-21T05:30:14;5.65;;;3.30;;
42134;SDS011;28312;43.460;11.810;2023-11-21T05:34:19;4.63;;;2.95;;
42134;SDS011;28312;43.460;11.810;2023-11-21T05:38:23;8.93;;;4.50;;
42134;SDS011;28312;43.460;11.810;2023-11-21T05:42:27;4.22;;;2.80;;
42134;SDS011;28312;43.460;11.810;2023-11-21T05:46:30;3.35;;;2.20;;
42134;SDS011;28312;43.460;11.810;2023-11-21T05:50:34;3.22;;;2.25;;
42134;SDS011;28312;43.460;11.810;2023-11-21T05:54:37;4.00;;;3.08;;
42134;SDS011;28312;43.460;11.810;2023-11-21T05:58:41;4.88;;;2.90;;
42134;SDS011;28312;43.460;11.810;2023-11-21T06:02:45;4.47;;;3.15;;
42134;SDS011;28312;43.460;11.810;2023-11-21T06:06:49;5.65;;;4.47;;
42134;SDS011;28312;43.460;11.810;2023-11-21T06:10:53;12.07;;;6.57;;
42134;SDS011;28312;43.460;11.810;2023-11-21T06:14:57;5.07;;;3.40;;
42134;SDS011;28312;43.460;11.810;2023-11-21T06:19:01;4.28;;;3.17;;
42134;SDS011;28312;43.460;11.810;2023-11-21T06:23:05;4.00;;;2.53;;
42134;SDS011;28312;43.460;11.810;2023-11-21T06:27:09;5.03;;;3.08;;
42134;SDS011;28312;43.460;11.810;2023-11-21T06:31:13;3.45;;;2.60;;
42134;SDS011;28312;43.460;11.810;2023-11-21T06:35:16;3.38;;;2.75;;
42134;SDS011;28312;43.460;11.810;2023-11-21T06:39:20;5.85;;;4.15;;
42134;SDS011;28312;43.460;11.810;2023-11-21T06:43:25;4.25;;;2.92;;
42134;SDS011;28312;43.460;11.810;2023-11-21T06:47:29;5.60;;;2.92;;
42134;SDS011;28312;43.460;11.810;2023-11-21T06:51:33;8.25;;;5.30;;
42134;SDS011;28312;43.460;11.810;2023-11-21T06:55:37;4.72;;;3.30;;
42134;SDS011;28312;43.460;11.810;2023-11-21T06:59:40;3.65;;;2.78;;
42134;SDS011;28312;43.460;11.810;2023-11-21T07:03:45;5.47;;;3.42;;
42134;SDS011;28312;43.460;11.810;2023-11-21T07:07:49;3.45;;;2.45;;
42134;SDS011;28312;43.460;11.810;2023-11-21T07:11:53;5.80;;;3.83;;
42134;SDS011;28312;43.460;11.810;2023-11-21T07:15:58;4.50;;;3.17;;
42134;SDS011;28312;43.460;11.810;2023-11-21T07:20:02;3.78;;;2.53;;
42134;SDS011;28312;43.460;11.810;2023-11-21T07:24:07;3.17;;;2.17;;
42134;SDS011;28312;43.460;11.810;2023-11-21T07:28:11;8.25;;;4.65;;
42134;SDS011;28312;43.460;11.810;2023-11-21T07:32:15;4.63;;;3.17;;
42134;SDS011;28312;43.460;11.810;2023-11-21T07:36:19;4.82;;;3.25;;
42134;SDS011;28312;43.460;11.810;2023-11-21T07:40:23;6.28;;;4.32;;
42134;SDS011;28312;43.460;11.810;2023-11-21T07:44:28;5.70;;;3.63;;
42134;SDS011;28312;43.460;11.810;2023-11-21T07:48:32;5.78;;;4.38;;
42134;SDS011;28312;43.460;11.810;2023-11-21T07:52:35;5.85;;;3.95;;
42134;SDS011;28312;43.460;11.810;2023-11-21T07:56:40;3.92;;;2.88;;
42134;SDS011;28312;43.460;11.810;2023-11-21T08:00:43;3.65;;;2.78;;
42134;SDS011;28312;43.460;11.810;2023-11-21T08:04:46;5.45;;;3.65;;
42134;SDS011;28312;43.460;11.810;2023-11-21T08:08:52;4.68;;;3.13;;
42134;SDS011;28312;43.460;11.810;2023-11-21T08:12:55;3.50;;;2.75;;
42134;SDS011;28312;43.460;11.810;2023-11-21T08:16:59;4.07;;;3.00;;
42134;SDS011;28312;43.460;11.810;2023-11-21T08:21:02;4.32;;;2.42;;
42134;SDS011;28312;43.460;11.810;2023-11-21T08:25:07;6.40;;;3.15;;
42134;SDS011;28312;43.460;11.810;2023-11-21T08:29:11;4.53;;;3.03;;
42134;SDS011;28312;43.460;11.810;2023-11-21T08:33:15;3.08;;;2.30;;
42134;SDS011;28312;43.460;11.810;2023-11-21T08:37:18;4.95;;;2.95;;
42134;SDS011;28312;43.460;11.810;2023-11-21T08:41:24;4.53;;;3.15;;
42134;SDS011;28312;43.460;11.810;2023-11-21T08:45:27;2.85;;;1.80;;
42134;SDS011;28312;43.460;11.810;2023-11-21T08:49:30;6.65;;;3.97;;
42134;SDS011;28312;43.460;11.810;2023-11-21T08:53:35;4.88;;;2.60;;
42134;SDS011;28312;43.460;11.810;2023-11-21T08:57:39;3.13;;;2.03;;
42134;SDS011;28312;43.460;11.810;2023-11-21T09:01:44;4.25;;;2.58;;
42134;SDS011;28312;43.460;11.810;2023-11-21T09:05:47;3.50;;;1.77;;
42134;SDS011;28312;43.460;11.810;2023-11-21T09:09:51;4.57;;;2.40;;
42134;SDS011;28312;43.460;11.810;2023-11-21T09:13:54;3.47;;;1.95;;
42134;SDS011;28312;43.460;11.810;2023-11-21T09:17:57;4.05;;;2.35;;
42134;SDS011;28312;43.460;11.810;2023-11-21T09:22:01;6.50;;;3.38;;
42134;SDS011;28312;43.460;11.810;2023-11-21T09:26:05;6.50;;;3.08;;
42134;SDS011;28312;43.460;11.810;2023-11-21T09:30:08;4.35;;;2.72;;
42134;SDS011;28312;43.460;11.810;2023-11-21T09:34:12;5.40;;;2.53;;
42134;SDS011;28312;43.460;11.810;2023-11-21T09:38:16;3.67;;;2.03;;
42134;SDS011;28312;43.460;11.810;2023-11-21T09:42:23;3.85;;;2.10;;
42134;SDS011;28312;43.460;11.810;2023-11-21T09:46:28;8.65;;;2.78;;
42134;SDS011;28312;43.460;11.810;2023-11-21T09:50:36;4.18;;;1.70;;
42134;SDS011;28312;43.460;11.810;2023-11-21T09:54:41;2.60;;;1.55;;
42134;SDS011;28312;43.460;11.810;2023-11-21T09:58:45;5.53;;;2.40;;
42134;SDS011;28312;43.460;11.810;2023-11-21T10:02:50;6.47;;;1.83;;
42134;SDS011;28312;43.460;11.810;2023-11-21T10:06:56;4.30;;;2.53;;
42134;SDS011;28312;43.460;11.810;2023-11-21T10:10:59;4.68;;;2.00;;
42134;SDS011;28312;43.460;11.810;2023-11-21T10:15:03;2.90;;;1.50;;
42134;SDS011;28312;43.460;11.810;2023-11-21T10:19:11;3.35;;;1.85;;
42134;SDS011;28312;43.460;11.810;2023-11-21T10:23:16;2.70;;;1.30;;
42134;SDS011;28312;43.460;11.810;2023-11-21T10:27:26;3.97;;;1.60;;
42134;SDS011;28312;43.460;11.810;2023-11-21T10:31:30;3.75;;;1.98;;
42134;SDS011;28312;43.460;11.810;2023-11-21T10:35:44;6.18;;;1.90;;
42134;SDS011;28312;43.460;11.810;2023-11-21T10:39:58;2.90;;;1.42;;
42134;SDS011;28312;43.460;11.810;2023-11-21T10:44:02;4.45;;;1.73;;
42134;SDS011;28312;43.460;11.810;2023-11-21T10:48:12;3.30;;;1.75;;
42134;SDS011;28312;43.460;11.810;2023-11-21T10:52:20;3.70;;;2.00;;
42134;SDS011;28312;43.460;11.810;2023-11-21T10:56:24;2.15;;;1.10;;
42134;SDS011;28312;43.460;11.810;2023-11-21T11:00:29;4.25;;;1.60;;
42134;SDS011;28312;43.460;11.810;2023-11-21T11:04:32;3.00;;;1.63;;
42134;SDS011;28312;43.460;11.810;2023-11-21T11:08:42;5.55;;;1.90;;
42134;SDS011;28312;43.460;11.810;2023-11-21T11:12:45;2.45;;;1.27;;
42134;SDS011;28312;43.460;11.810;2023-11-21T11:16:49;4.38;;;1.98;;
42134;SDS011;28312;43.460;11.810;2023-11-21T11:20:54;5.93;;;2.17;;
42134;SDS011;28312;43.460;11.810;2023-11-21T11:25:14;3.10;;;1.42;;
42134;SDS011;28312;43.460;11.810;2023-11-21T11:34:18;4.22;;;1.23;;
42134;SDS011;28312;43.460;11.810;2023-11-21T11:38:33;2.83;;;1.20;;
42134;SDS011;28312;43.460;11.810;2023-11-21T11:42:38;3.35;;;1.13;;
42134;SDS011;28312;43.460;11.810;2023-11-21T11:46:42;5.10;;;1.63;;
42134;SDS011;28312;43.460;11.810;2023-11-21T11:51:01;2.55;;;0.90;;
42134;SDS011;28312;43.460;11.810;2023-11-21T11:55:16;2.15;;;1.23;;
42134;SDS011;28312;43.460;11.810;2023-11-21T11:59:22;2.80;;;1.42;;
42134;SDS011;28312;43.460;11.810;2023-11-21T12:03:26;4.22;;;1.40;;
42134;SDS011;28312;43.460;11.810;2023-11-21T12:07:44;3.83;;;1.23;;
42134;SDS011;28312;43.460;11.810;2023-11-21T12:11:49;1.70;;;1.00;;
42134;SDS011;28312;43.460;11.810;2023-11-21T12:15:53;1.83;;;1.10;;
42134;SDS011;28312;43.460;11.810;2023-11-21T12:20:04;2.35;;;1.05;;
42134;SDS011;28312;43.460;11.810;2023-11-21T12:24:09;3.85;;;1.55;;
42134;SDS011;28312;43.460;11.810;2023-11-21T12:28:16;2.53;;;0.95;;
42134;SDS011;28312;43.460;11.810;2023-11-21T12:32:20;2.53;;;1.17;;
42134;SDS011;28312;43.460;11.810;2023-11-21T12:36:24;2.60;;;1.00;;
42134;SDS011;28312;43.460;11.810;2023-11-21T12:40:30;1.48;;;0.80;;
42134;SDS011;28312;43.460;11.810;2023-11-21T12:44:35;3.03;;;0.80;;
42134;SDS011;28312;43.460;11.810;2023-11-21T12:48:41;1.73;;;0.90;;
42134;SDS011;28312;43.460;11.810;2023-11-21T12:52:52;2.03;;;1.17;;
42134;SDS011;28312;43.460;11.810;2023-11-21T12:56:59;5.75;;;1.08;;
42134;SDS011;28312;43.460;11.810;2023-11-21T13:01:04;1.67;;;0.80;;
42134;SDS011;28312;43.460;11.810;2023-11-21T13:05:22;1.52;;;0.82;;
42134;SDS011;28312;43.460;11.810;2023-11-21T13:09:42;0.98;;;0.57;;
42134;SDS011;28312;43.460;11.810;2023-11-21T13:13:46;17.15;;;10.75;;
42134;SDS011;28312;43.460;11.810;2023-11-21T13:17:53;3.78;;;1.02;;
42134;SDS011;28312;43.460;11.810;2023-11-21T13:21:58;4.20;;;1.20;;
42134;SDS011;28312;43.460;11.810;2023-11-21T13:26:04;1.97;;;1.00;;
42134;SDS011;28312;43.460;11.810;2023-11-21T13:30:09;2.67;;;1.15;;
42134;SDS011;28312;43.460;11.810;2023-11-21T13:34:13;2.33;;;0.95;;
42134;SDS011;28312;43.460;11.810;2023-11-21T13:38:22;2.28;;;0.93;;
42134;SDS011;28312;43.460;11.810;2023-11-21T13:42:28;1.70;;;0.88;;
42134;SDS011;28312;43.460;11.810;2023-11-21T13:46:32;2.13;;;1.02;;
42134;SDS011;28312;43.460;11.810;2023-11-21T13:50:41;2.05;;;1.10;;
42134;SDS011;28312;43.460;11.810;2023-11-21T13:54:55;1.25;;;0.70;;
42134;SDS011;28312;43.460;11.810;2023-11-21T13:58:59;1.88;;;0.80;;
42134;SDS011;28312;43.460;11.810;2023-11-21T14:03:12;1.83;;;1.08;;
42134;SDS011;28312;43.460;11.810;2023-11-21T14:07:26;3.17;;;1.10;;
42134;SDS011;28312;43.460;11.810;2023-11-21T14:11:39;1.92;;;1.15;;
42134;SDS011;28312;43.460;11.810;2023-11-21T14:15:50;2.80;;;0.65;;
42134;SDS011;28312;43.460;11.810;2023-11-21T14:20:00;1.80;;;1.02;;
42134;SDS011;28312;43.460;11.810;2023-11-21T14:24:05;0.90;;;0.50;;
42134;SDS011;28312;43.460;11.810;2023-11-21T14:28:12;3.78;;;0.80;;
42134;SDS011;28312;43.460;11.810;2023-11-21T14:32:15;1.38;;;0.70;;
42134;SDS011;28312;43.460;11.810;2023-11-21T14:36:20;1.70;;;0.75;;
42134;SDS011;28312;43.460;11.810;2023-11-21T14:40:24;1.98;;;0.80;;
42134;SDS011;28312;43.460;11.810;2023-11-21T14:44:29;1.10;;;0.60;;
42134;SDS011;28312;43.460;11.810;2023-11-21T14:48:38;1.08;;;0.60;;
42134;SDS011;28312;43.460;11.810;2023-11-21T14:52:50;1.90;;;1.00;;
42134;SDS011;28312;43.460;11.810;2023-11-21T14:57:02;1.95;;;1.17;;
42134;SDS011;28312;43.460;11.810;2023-11-21T15:01:05;1.55;;;0.88;;
42134;SDS011;28312;43.460;11.810;2023-11-21T15:05:10;1.48;;;0.88;;
42134;SDS011;28312;43.460;11.810;2023-11-21T15:09:19;1.67;;;0.88;;
42134;SDS011;28312;43.460;11.810;2023-11-21T15:13:25;1.67;;;0.90;;
42134;SDS011;28312;43.460;11.810;2023-11-21T15:17:30;1.38;;;0.68;;
42134;SDS011;28312;43.460;11.810;2023-11-21T15:21:37;2.47;;;1.33;;
42134;SDS011;28312;43.460;11.810;2023-11-21T15:25:40;2.13;;;1.08;;
42134;SDS011;28312;43.460;11.810;2023-11-21T15:29:44;1.58;;;0.90;;
42134;SDS011;28312;43.460;11.810;2023-11-21T15:33:48;1.73;;;0.90;;
42134;SDS011;28312;43.460;11.810;2023-11-21T15:37:51;1.38;;;0.70;;
42134;SDS011;28312;43.460;11.810;2023-11-21T15:41:55;1.15;;;0.57;;
42134;SDS011;28312;43.460;11.810;2023-11-21T15:46:02;0.95;;;0.45;;
42134;SDS011;28312;43.460;11.810;2023-11-21T15:50:10;1.65;;;0.70;;
42134;SDS011;28312;43.460;11.810;2023-11-21T15:54:13;1.67;;;1.00;;
42134;SDS011;28312;43.460;11.810;2023-11-21T15:58:17;1.33;;;0.65;;
42134;SDS011;28312;43.460;11.810;2023-11-21T16:02:20;1.58;;;0.70;;
42134;SDS011;28312;43.460;11.810;2023-11-21T16:06:24;1.40;;;0.75;;
42134;SDS011;28312;43.460;11.810;2023-11-21T16:10:28;1.75;;;0.98;;
42134;SDS011;28312;43.460;11.810;2023-11-21T16:14:32;1.05;;;0.68;;
42134;SDS011;28312;43.460;11.810;2023-11-21T16:18:48;2.03;;;0.60;;
42134;SDS011;28312;43.460;11.810;2023-11-21T16:22:51;1.70;;;0.63;;
42134;SDS011;28312;43.460;11.810;2023-11-21T16:26:55;0.90;;;0.65;;
42134;SDS011;28312;43.460;11.810;2023-11-21T16:30:59;1.40;;;0.63;;
42134;SDS011;28312;43.460;11.810;2023-11-21T16:35:03;1.45;;;0.70;;
42134;SDS011;28312;43.460;11.810;2023-11-21T16:39:07;2.35;;;0.85;;
42134;SDS011;28312;43.460;11.810;2023-11-21T16:43:12;2.03;;;0.50;;
42134;SDS011;28312;43.460;11.810;2023-11-21T16:47:16;1.27;;;0.60;;
42134;SDS011;28312;43.460;11.810;2023-11-21T16:51:19;1.42;;;0.70;;
42134;SDS011;28312;43.460;11.810;2023-11-21T16:55:23;0.82;;;0.57;;
42134;SDS011;28312;43.460;11.810;2023-11-21T16:59:26;3.63;;;1.80;;
42134;SDS011;28312;43.460;11.810;2023-11-21T17:03:29;2.90;;;1.95;;
42134;SDS011;28312;43.460;11.810;2023-11-21T17:07:34;4.05;;;2.55;;
42134;SDS011;28312;43.460;11.810;2023-11-21T17:11:38;4.05;;;2.05;;
42134;SDS011;28312;43.460;11.810;2023-11-21T17:15:45;2.00;;;1.20;;
42134;SDS011;28312;43.460;11.810;2023-11-21T17:19:49;3.55;;;1.17;;
42134;SDS011;28312;43.460;11.810;2023-11-21T17:23:52;2.03;;;1.10;;
42134;SDS011;28312;43.460;11.810;2023-11-21T17:27:56;2.72;;;1.00;;
42134;SDS011;28312;43.460;11.810;2023-11-21T17:32:00;2.03;;;1.30;;
42134;SDS011;28312;43.460;11.810;2023-11-21T17:36:04;1.92;;;1.10;;
42134;SDS011;28312;43.460;11.810;2023-11-21T17:40:12;2.95;;;1.83;;
42134;SDS011;28312;43.460;11.810;2023-11-21T17:44:17;3.70;;;2.58;;
42134;SDS011;28312;43.460;11.810;2023-11-21T17:48:20;3.15;;;1.95;;
42134;SDS011;28312;43.460;11.810;2023-11-21T17:52:24;3.58;;;2.22;;
42134;SDS011;28312;43.460;11.810;2023-11-21T17:56:27;5.63;;;4.88;;
42134;SDS011;28312;43.460;11.810;2023-11-21T18:00:31;4.35;;;3.22;;
42134;SDS011;28312;43.460;11.810;2023-11-21T18:04:36;2.38;;;1.70;;
42134;SDS011;28312;43.460;11.810;2023-11-21T18:08:39;3.08;;;1.33;;
42134;SDS011;28312;43.460;11.810;2023-11-21T18:12:45;3.65;;;1.42;;
42134;SDS011;28312;43.460;11.810;2023-11-21T18:16:49;2.53;;;1.45;;
42134;SDS011;28312;43.460;11.810;2023-11-21T18:20:52;2.03;;;1.50;;
42134;SDS011;28312;43.460;11.810;2023-11-21T18:24:56;1.75;;;1.10;;
42134;SDS011;28312;43.460;11.810;2023-11-21T18:29:03;2.13;;;1.20;;
42134;SDS011;28312;43.460;11.810;2023-11-21T18:33:06;2.40;;;1.50;;
42134;SDS011;28312;43.460;11.810;2023-11-21T18:37:13;11.32;;;2.15;;
42134;SDS011;28312;43.460;11.810;2023-11-21T18:41:21;2.30;;;1.63;;
42134;SDS011;28312;43.460;11.810;2023-11-21T18:45:26;1.77;;;1.13;;
42134;SDS011;28312;43.460;11.810;2023-11-21T18:49:29;4.68;;;2.13;;
42134;SDS011;28312;43.460;11.810;2023-11-21T18:53:33;2.28;;;1.30;;
42134;SDS011;28312;43.460;11.810;2023-11-21T18:57:38;2.72;;;1.73;;
42134;SDS011;28312;43.460;11.810;2023-11-21T19:01:43;2.50;;;1.42;;
42134;SDS011;28312;43.460;11.810;2023-11-21T19:05:50;3.85;;;1.90;;
42134;SDS011;28312;43.460;11.810;2023-11-21T19:09:53;12.43;;;7.88;;
42134;SDS011;28312;43.460;11.810;2023-11-21T19:13:57;4.20;;;2.50;;
42134;SDS011;28312;43.460;11.810;2023-11-21T19:18:01;2.58;;;1.67;;
42134;SDS011;28312;43.460;11.810;2023-11-21T19:22:05;2.08;;;1.10;;
42134;SDS011;28312;43.460;11.810;2023-11-21T19:26:08;3.40;;;2.20;;
42134;SDS011;28312;43.460;11.810;2023-11-21T19:30:12;6.20;;;2.60;;
42134;SDS011;28312;43.460;11.810;2023-11-21T19:34:15;3.83;;;2.22;;
42134;SDS011;28312;43.460;11.810;2023-11-21T19:38:22;2.60;;;1.80;;
42134;SDS011;28312;43.460;11.810;2023-11-21T19:42:27;3.63;;;1.60;;
42134;SDS011;28312;43.460;11.810;2023-11-21T19:46:32;1.77;;;1.17;;
42134;SDS011;28312;43.460;11.810;2023-11-21T19:50:36;1.65;;;1.08;;
42134;SDS011;28312;43.460;11.810;2023-11-21T19:54:39;2.35;;;1.13;;
42134;SDS011;28312;43.460;11.810;2023-11-21T19:58:43;2.47;;;1.20;;
42134;SDS011;28312;43.460;11.810;2023-11-21T20:02:47;3.17;;;1.77;;
42134;SDS011;28312;43.460;11.810;2023-11-21T20:06:52;3.10;;;1.75;;
42134;SDS011;28312;43.460;11.810;2023-11-21T20:10:58;4.70;;;3.10;;
42134;SDS011;28312;43.460;11.810;2023-11-21T20:15:02;2.53;;;1.30;;
42134;SDS011;28312;43.460;11.810;2023-11-21T20:19:09;2.97;;;1.55;;
42134;SDS011;28312;43.460;11.810;2023-11-21T20:23:12;4.03;;;2.42;;
42134;SDS011;28312;43.460;11.810;2023-11-21T20:27:17;2.63;;;2.03;;
42134;SDS011;28312;43.460;11.810;2023-11-21T20:31:20;5.68;;;4.13;;
42134;SDS011;28312;43.460;11.810;2023-11-21T20:35:26;3.42;;;1.40;;
42134;SDS011;28312;43.460;11.810;2023-11-21T20:39:29;3.25;;;2.38;;
42134;SDS011;28312;43.460;11.810;2023-11-21T20:43:39;1.80;;;1.02;;
42134;SDS011;28312;43.460;11.810;2023-11-21T20:47:42;1.33;;;0.90;;
42134;SDS011;28312;43.460;11.810;2023-11-21T20:51:46;1.60;;;1.05;;
42134;SDS011;28312;43.460;11.810;2023-11-21T20:55:50;4.72;;;1.80;;
42134;SDS011;28312;43.460;11.810;2023-11-21T20:59:55;1.20;;;0.88;;
42134;SDS011;28312;43.460;11.810;2023-11-21T21:03:58;1.52;;;0.88;;
42134;SDS011;28312;43.460;11.810;2023-11-21T21:08:05;1.35;;;0.60;;
42134;SDS011;28312;43.460;11.810;2023-11-21T21:12:09;1.10;;;0.80;;
42134;SDS011;28312;43.460;11.810;2023-11-21T21:16:14;0.93;;;0.60;;
42134;SDS011;28312;43.460;11.810;2023-11-21T21:20:17;0.93;;;0.65;;
42134;SDS011;28312;43.460;11.810;2023-11-21T21:24:21;1.25;;;0.70;;
42134;SDS011;28312;43.460;11.810;2023-11-21T21:28:24;0.70;;;0.55;;
42134;SDS011;28312;43.460;11.810;2023-11-21T21:32:28;0.85;;;0.50;;
42134;SDS011;28312;43.460;11.810;2023-11-21T21:36:31;1.02;;;0.73;;
42134;SDS011;28312;43.460;11.810;2023-11-21T21:40:35;3.53;;;1.40;;
42134;SDS011;28312;43.460;11.810;2023-11-21T21:44:38;1.17;;;0.75;;
42134;SDS011;28312;43.460;11.810;2023-11-21T21:48:43;0.50;;;0.50;;
42134;SDS011;28312;43.460;11.810;2023-11-21T21:52:49;2.15;;;0.88;;
42134;SDS011;28312;43.460;11.810;2023-11-21T21:56:53;0.93;;;0.55;;
42134;SDS011;28312;43.460;11.810;2023-11-21T22:00:56;0.77;;;0.45;;
42134;SDS011;28312;43.460;11.810;2023-11-21T22:05:03;2.20;;;0.65;;
42134;SDS011;28312;43.460;11.810;2023-11-21T22:09:07;0.55;;;0.50;;
42134;SDS011;28312;43.460;11.810;2023-11-21T22:13:15;0.40;;;0.40;;
42134;SDS011;28312;43.460;11.810;2023-11-21T22:17:19;1.05;;;0.60;;
42134;SDS011;28312;43.460;11.810;2023-11-21T22:21:26;1.33;;;0.70;;
42134;SDS011;28312;43.460;11.810;2023-11-21T22:25:29;0.80;;;0.57;;
42134;SDS011;28312;43.460;11.810;2023-11-21T22:29:32;2.58;;;0.50;;
42134;SDS011;28312;43.460;11.810;2023-11-21T22:33:38;0.30;;;0.30;;
42134;SDS011;28312;43.460;11.810;2023-11-21T22:37:41;0.40;;;0.40;;
42134;SDS011;28312;43.460;11.810;2023-11-21T22:41:45;1.00;;;0.68;;
42134;SDS011;28312;43.460;11.810;2023-11-21T22:45:49;0.70;;;0.60;;
42134;SDS011;28312;43.460;11.810;2023-11-21T22:49:53;0.40;;;0.40;;
42134;SDS011;28312;43.460;11.810;2023-11-21T22:53:58;0.38;;;0.38;;
42134;SDS011;28312;43.460;11.810;2023-11-21T22:58:02;0.30;;;0.30;;
42134;SDS011;28312;43.460;11.810;2023-11-21T23:02:07;0.63;;;0.55;;
42134;SDS011;28312;43.460;11.810;2023-11-21T23:06:19;0.70;;;0.52;;
42134;SDS011;28312;43.460;11.810;2023-11-21T23:10:24;1.40;;;0.38;;
42134;SDS011;28312;43.460;11.810;2023-11-21T23:14:30;0.25;;;0.25;;
42134;SDS011;28312;43.460;11.810;2023-11-21T23:18:36;0.65;;;0.45;;
42134;SDS011;28312;43.460;11.810;2023-11-21T23:22:41;0.38;;;0.38;;
42134;SDS011;28312;43.460;11.810;2023-11-21T23:26:49;2.05;;;0.40;;
42134;SDS011;28312;43.460;11.810;2023-11-21T23:30:53;0.82;;;0.60;;
42134;SDS011;28312;43.460;11.810;2023-11-21T23:34:57;0.40;;;0.40;;
42134;SDS011;28312;43.460;11.810;2023-11-21T23:39:00;0.85;;;0.50;;
42134;SDS011;28312;43.460;11.810;2023-11-21T23:43:11;0.75;;;0.43;;
42134;SDS011;28312;43.460;11.810;2023-11-21T23:47:15;0.47;;;0.40;;
42134;SDS011;28312;43.460;11.810;2023-11-21T23:51:20;1.05;;;0.47;;
42134;SDS011;28312;43.460;11.810;2023-11-21T23:55:27;0.38;;;0.32;;
42134;SDS011;28312;43.460;11.810;2023-11-21T23:59:31;0.82;;;0.50;;
